createdAt,value
2022-09-17T00:01:33.283Z,11.80
2022-09-17T00:04:03.937Z,11.70
2022-09-17T00:06:33.971Z,11.70
2022-09-17T00:09:02.309Z,11.70
2022-09-17T00:11:32.898Z,11.70
2022-09-17T00:14:02.007Z,11.70
2022-09-17T00:16:35.407Z,11.60
2022-09-17T00:19:04.307Z,11.60
2022-09-17T00:21:32.163Z,11.60
2022-09-17T00:24:04.778Z,11.60
2022-09-17T00:26:33.328Z,11.60
2022-09-17T00:29:01.444Z,11.60
2022-09-17T00:31:30.900Z,11.50
2022-09-17T00:33:59.782Z,11.50
2022-09-17T00:36:27.739Z,11.50
2022-09-17T00:38:59.785Z,11.50
2022-09-17T00:41:30.791Z,11.50
2022-09-17T00:44:22.985Z,11.50
2022-09-17T00:46:50.971Z,11.50
2022-09-17T00:49:20.391Z,11.50
2022-09-17T00:52:01.215Z,11.50
2022-09-17T00:54:29.211Z,11.50
2022-09-17T00:56:58.029Z,11.50
2022-09-17T00:59:26.618Z,11.50
2022-09-17T01:01:54.660Z,11.60
2022-09-17T01:04:26.675Z,11.60
2022-09-17T01:07:10.235Z,11.70
2022-09-17T01:09:57.537Z,11.70
2022-09-17T01:12:25.156Z,11.80
2022-09-17T01:15:17.624Z,11.80
2022-09-17T01:18:14.121Z,11.90
2022-09-17T01:20:57.129Z,11.90
2022-09-17T01:24:04.044Z,11.90
2022-09-17T01:27:08.480Z,12.00
2022-09-17T01:30:04.604Z,12.00
2022-09-17T01:32:39.952Z,12.10
2022-09-17T01:35:43.374Z,12.10
2022-09-17T01:38:19.021Z,12.10
2022-09-17T01:41:10.460Z,12.10
2022-09-17T01:44:28.053Z,12.10
2022-09-17T01:47:01.566Z,12.10
2022-09-17T01:49:31.675Z,12.20
2022-09-17T01:52:01.701Z,12.20
2022-09-17T01:54:38.048Z,12.20
2022-09-17T01:57:17.562Z,12.20
2022-09-17T02:00:15.782Z,12.20
2022-09-17T02:03:11.935Z,12.30
2022-09-17T02:05:41.554Z,12.40
2022-09-17T02:08:18.676Z,12.40
2022-09-17T02:10:59.240Z,12.40
2022-09-17T02:13:45.107Z,12.40
2022-09-17T02:16:25.510Z,12.40
2022-09-17T02:19:24.937Z,12.40
2022-09-17T02:22:01.097Z,12.40
2022-09-17T02:24:46.415Z,12.50
2022-09-17T02:27:36.070Z,12.40
2022-09-17T02:30:04.191Z,12.40
2022-09-17T02:32:31.851Z,12.40
2022-09-17T02:34:59.226Z,12.40
2022-09-17T02:37:27.772Z,12.40
2022-09-17T02:39:56.762Z,12.40
2022-09-17T02:42:56.452Z,12.40
2022-09-17T02:45:43.185Z,12.40
2022-09-17T02:48:45.087Z,12.40
2022-09-17T02:51:33.632Z,12.40
2022-09-17T02:54:12.191Z,12.30
2022-09-17T02:57:04.362Z,12.40
2022-09-17T02:59:43.858Z,12.40
2022-09-17T03:02:19.742Z,12.40
2022-09-17T03:04:49.739Z,12.40
2022-09-17T03:07:19.989Z,12.40
2022-09-17T03:09:47.568Z,12.30
2022-09-17T03:12:15.335Z,12.30
2022-09-17T03:14:42.861Z,12.30
2022-09-17T03:17:12.292Z,12.30
2022-09-17T03:19:40.971Z,12.30
2022-09-17T03:22:08.797Z,12.30
2022-09-17T03:24:36.326Z,12.30
2022-09-17T03:27:03.974Z,12.40
2022-09-17T03:29:31.316Z,12.30
2022-09-17T03:31:59.361Z,12.40
2022-09-17T03:34:27.081Z,12.40
2022-09-17T03:36:54.391Z,12.40
2022-09-17T03:39:21.787Z,12.40
2022-09-17T03:41:49.338Z,12.40
2022-09-17T03:44:19.269Z,12.40
2022-09-17T03:46:46.877Z,12.40
2022-09-17T03:49:14.419Z,12.40
2022-09-17T03:51:42.020Z,12.40
2022-09-17T03:54:10.235Z,12.40
2022-09-17T03:56:37.928Z,12.40
2022-09-17T03:59:06.059Z,12.40
2022-09-17T04:01:33.842Z,12.40
2022-09-17T04:04:01.665Z,12.40
2022-09-17T04:06:29.199Z,12.40
2022-09-17T04:08:56.886Z,12.40
2022-09-17T04:11:24.221Z,12.30
2022-09-17T04:13:51.944Z,12.30
2022-09-17T04:16:19.511Z,12.30
2022-09-17T04:18:47.100Z,12.30
2022-09-17T04:21:14.517Z,12.30
2022-09-17T04:23:42.128Z,12.30
2022-09-17T04:26:09.689Z,12.30
2022-09-17T04:28:37.137Z,12.30
2022-09-17T04:31:04.653Z,12.30
2022-09-17T04:33:32.132Z,12.30
2022-09-17T04:35:59.728Z,12.30
2022-09-17T04:38:27.530Z,12.30
2022-09-17T04:40:57.321Z,12.30
2022-09-17T04:43:25.050Z,12.30
2022-09-17T04:45:52.455Z,12.30
2022-09-17T04:48:21.101Z,12.30
2022-09-17T04:50:48.568Z,12.30
2022-09-17T04:53:18.743Z,12.30
2022-09-17T04:55:46.081Z,12.30
2022-09-17T04:58:13.975Z,12.30
2022-09-17T05:00:42.426Z,12.30
2022-09-17T05:03:09.975Z,12.40
2022-09-17T05:05:37.830Z,12.40
2022-09-17T05:08:05.868Z,12.40
2022-09-17T05:10:33.660Z,12.40
2022-09-17T05:13:01.155Z,12.40
2022-09-17T05:15:28.597Z,12.40
2022-09-17T05:17:56.008Z,12.40
2022-09-17T05:20:23.471Z,12.40
2022-09-17T05:22:52.196Z,12.40
2022-09-17T05:25:24.472Z,12.40
2022-09-17T05:27:56.215Z,12.40
2022-09-17T05:30:23.679Z,12.40
2022-09-17T05:33:03.216Z,12.30
2022-09-17T05:35:31.574Z,12.40
2022-09-17T05:38:04.572Z,12.40
2022-09-17T05:40:35.523Z,12.40
2022-09-17T05:43:05.844Z,12.40
2022-09-17T05:45:34.524Z,12.40
2022-09-17T05:48:03.518Z,12.40
2022-09-17T05:50:32.290Z,12.40
2022-09-17T05:53:12.675Z,12.50
2022-09-17T05:55:41.531Z,12.50
2022-09-17T05:58:14.003Z,12.50
2022-09-17T06:00:42.567Z,12.50
2022-09-17T06:03:15.285Z,12.50
2022-09-17T06:05:42.924Z,12.50
2022-09-17T06:08:10.244Z,12.50
2022-09-17T06:10:38.781Z,12.60
2022-09-17T06:13:06.201Z,12.60
2022-09-17T06:15:33.964Z,12.60
2022-09-17T06:18:01.504Z,12.60
2022-09-17T06:20:29.099Z,12.60
2022-09-17T06:22:59.669Z,12.60
2022-09-17T06:25:27.153Z,12.60
2022-09-17T06:27:54.470Z,12.60
2022-09-17T06:30:21.999Z,12.70
2022-09-17T06:32:49.793Z,12.70
2022-09-17T06:35:20.377Z,12.70
2022-09-17T06:37:48.673Z,12.70
2022-09-17T06:40:17.630Z,12.70
2022-09-17T06:42:45.198Z,12.70
2022-09-17T06:45:16.554Z,12.70
2022-09-17T06:47:44.387Z,12.70
2022-09-17T06:50:11.880Z,12.70
2022-09-17T06:52:39.344Z,12.70
2022-09-17T06:55:07.346Z,12.70
2022-09-17T06:57:35.039Z,12.70
2022-09-17T07:00:03.892Z,12.80
2022-09-17T07:02:31.444Z,12.80
2022-09-17T07:04:59.131Z,12.80
2022-09-17T07:07:26.839Z,12.80
2022-09-17T07:09:54.435Z,12.80
2022-09-17T07:12:21.956Z,12.90
2022-09-17T07:14:50.769Z,12.90
2022-09-17T07:17:18.535Z,13.00
2022-09-17T07:19:46.275Z,13.00
2022-09-17T07:22:14.102Z,13.00
2022-09-17T07:24:41.687Z,13.10
2022-09-17T07:27:09.139Z,13.10
2022-09-17T07:29:36.694Z,13.10
2022-09-17T07:32:04.239Z,13.20
2022-09-17T07:34:31.535Z,13.20
2022-09-17T07:36:59.179Z,13.20
2022-09-17T07:39:26.765Z,13.20
2022-09-17T07:41:54.149Z,13.20
2022-09-17T07:44:22.707Z,13.20
2022-09-17T07:46:50.389Z,13.20
2022-09-17T07:49:17.914Z,13.30
2022-09-17T07:51:45.515Z,13.20
2022-09-17T07:54:12.961Z,13.30
2022-09-17T07:56:40.214Z,13.30
2022-09-17T07:59:08.992Z,13.30
2022-09-17T08:01:36.657Z,13.30
2022-09-17T08:04:04.666Z,13.30
2022-09-17T08:06:32.187Z,13.40
2022-09-17T08:09:00.052Z,13.40
2022-09-17T08:11:55.559Z,13.40
2022-09-17T08:14:17.514Z,13.50
2022-09-17T08:16:47.340Z,13.60
2022-09-17T08:19:15.080Z,13.60
2022-09-17T08:21:42.504Z,13.70
2022-09-17T08:24:09.830Z,13.80
2022-09-17T08:26:37.244Z,13.90
2022-09-17T08:29:05.772Z,14.00
2022-09-17T08:31:33.597Z,14.10
2022-09-17T08:34:01.407Z,14.20
2022-09-17T08:36:28.983Z,14.30
2022-09-17T08:38:58.272Z,14.30
2022-09-17T08:41:35.728Z,14.40
2022-09-17T08:44:25.104Z,14.40
2022-09-17T08:47:08.880Z,14.50
2022-09-17T08:49:36.638Z,14.60
2022-09-17T08:52:43.340Z,14.60
2022-09-17T08:55:35.171Z,14.70
2022-09-17T08:58:33.798Z,14.80
2022-09-17T09:01:20.333Z,14.80
2022-09-17T09:04:22.975Z,14.90
2022-09-17T09:07:14.319Z,14.90
2022-09-17T09:10:08.583Z,15.00
2022-09-17T09:12:37.280Z,15.00
2022-09-17T09:15:30.808Z,15.10
2022-09-17T09:18:05.147Z,15.10
2022-09-17T09:20:55.469Z,15.10
2022-09-17T09:23:34.145Z,15.20
2022-09-17T09:26:20.531Z,15.30
2022-09-17T09:29:06.012Z,15.30
2022-09-17T09:32:09.362Z,15.40
2022-09-17T09:34:46.276Z,15.50
2022-09-17T09:37:13.894Z,15.60
2022-09-17T09:39:46.248Z,15.60
2022-09-17T09:42:37.532Z,15.70
2022-09-17T09:45:38.681Z,15.80
2022-09-17T09:48:27.700Z,15.90
2022-09-17T09:51:30.408Z,16.00
2022-09-17T09:54:20.544Z,16.00
2022-09-17T09:56:59.706Z,16.00
2022-09-17T09:59:27.142Z,16.00
2022-09-17T10:01:54.740Z,15.90
2022-09-17T10:04:25.931Z,15.80
2022-09-17T10:07:00.535Z,15.70
2022-09-17T10:09:30.068Z,15.70
2022-09-17T10:12:15.528Z,15.60
2022-09-17T10:14:45.498Z,15.60
2022-09-17T10:17:24.987Z,15.60
2022-09-17T10:20:02.196Z,15.60
2022-09-17T10:22:31.138Z,15.70
2022-09-17T10:25:00.526Z,15.80
2022-09-17T10:27:30.190Z,15.90
2022-09-17T10:30:14.259Z,15.90
2022-09-17T10:32:41.871Z,16.00
2022-09-17T10:35:15.215Z,16.10
2022-09-17T10:37:47.867Z,16.20
2022-09-17T10:40:18.829Z,16.30
2022-09-17T10:42:51.199Z,16.40
2022-09-17T10:45:29.316Z,16.40
2022-09-17T10:47:59.534Z,16.50
2022-09-17T10:50:33.030Z,16.50
2022-09-17T10:53:04.382Z,16.60
2022-09-17T10:55:50.474Z,16.60
2022-09-17T10:58:25.463Z,16.70
2022-09-17T11:01:00.170Z,16.70
2022-09-17T11:03:43.003Z,16.70
2022-09-17T11:06:19.967Z,16.70
2022-09-17T11:09:13.548Z,16.70
2022-09-17T11:12:05.555Z,16.60
2022-09-17T11:14:45.588Z,16.70
2022-09-17T11:17:18.815Z,16.80
2022-09-17T11:20:01.179Z,16.90
2022-09-17T11:22:52.507Z,17.00
2022-09-17T11:25:33.071Z,17.00
2022-09-17T11:28:07.722Z,17.00
2022-09-17T11:30:56.419Z,17.10
2022-09-17T11:33:38.267Z,17.20
2022-09-17T11:36:14.419Z,17.30
2022-09-17T11:38:51.409Z,17.40
2022-09-17T11:41:33.156Z,17.50
2022-09-17T11:44:15.873Z,17.50
2022-09-17T11:46:46.472Z,17.50
2022-09-17T11:49:44.215Z,17.50
2022-09-17T11:52:28.291Z,17.50
2022-09-17T11:55:22.491Z,17.40
2022-09-17T11:57:57.756Z,17.40
2022-09-17T12:00:28.612Z,17.30
2022-09-17T12:03:10.408Z,17.20
2022-09-17T12:05:46.328Z,17.00
2022-09-17T12:08:40.467Z,16.90
2022-09-17T12:11:11.992Z,16.70
2022-09-17T12:14:09.415Z,16.70
2022-09-17T12:16:42.731Z,16.70
2022-09-17T12:19:22.107Z,16.70
2022-09-17T12:21:56.228Z,16.80
2022-09-17T12:24:30.744Z,16.90
2022-09-17T12:27:19.208Z,16.90
2022-09-17T12:30:22.949Z,16.90
2022-09-17T12:33:14.436Z,17.00
2022-09-17T12:36:04.886Z,17.00
2022-09-17T12:38:54.958Z,17.10
2022-09-17T12:41:54.630Z,17.20
2022-09-17T12:44:36.541Z,17.40
2022-09-17T12:47:19.952Z,17.50
2022-09-17T12:50:06.243Z,17.70
2022-09-17T12:52:53.916Z,17.90
2022-09-17T12:55:45.916Z,18.00
2022-09-17T12:58:36.934Z,17.90
2022-09-17T13:01:14.095Z,17.80
2022-09-17T13:03:54.787Z,17.40
2022-09-17T13:06:31.043Z,17.10
2022-09-17T13:09:07.211Z,16.70
2022-09-17T13:12:01.537Z,16.40
2022-09-17T13:14:40.987Z,16.10
2022-09-17T13:17:28.452Z,15.80
2022-09-17T13:20:21.709Z,15.60
2022-09-17T13:22:54.207Z,15.40
2022-09-17T13:25:22.925Z,15.30
2022-09-17T13:28:04.413Z,15.30
2022-09-17T13:30:55.760Z,15.30
2022-09-17T13:33:52.580Z,15.30
2022-09-17T13:36:44.899Z,15.40
2022-09-17T13:39:47.996Z,15.50
2022-09-17T13:42:18.298Z,15.50
2022-09-17T13:45:10.068Z,15.50
2022-09-17T13:47:59.490Z,15.50
2022-09-17T13:50:44.509Z,15.50
2022-09-17T13:53:14.697Z,15.60
2022-09-17T13:55:45.299Z,15.70
2022-09-17T13:58:24.531Z,15.70
2022-09-17T14:01:03.617Z,15.80
2022-09-17T14:03:31.098Z,15.90
2022-09-17T14:06:22.007Z,16.00
2022-09-17T14:08:54.436Z,16.00
2022-09-17T14:11:23.289Z,16.00
2022-09-17T14:13:52.131Z,16.00
2022-09-17T14:16:29.078Z,16.00
2022-09-17T14:19:00.365Z,15.90
2022-09-17T14:21:31.918Z,15.90
2022-09-17T14:24:15.321Z,15.80
2022-09-17T14:27:00.867Z,15.80
2022-09-17T14:30:00.206Z,15.80
2022-09-17T14:32:48.992Z,15.70
2022-09-17T14:35:31.314Z,15.80
2022-09-17T14:38:08.780Z,15.80
2022-09-17T14:40:36.401Z,15.70
2022-09-17T14:43:03.928Z,15.60
2022-09-17T14:45:41.225Z,15.40
2022-09-17T14:48:27.424Z,15.20
2022-09-17T14:51:22.493Z,15.10
2022-09-17T14:54:09.803Z,14.90
2022-09-17T14:56:48.428Z,14.80
2022-09-17T14:59:41.725Z,14.80
2022-09-17T15:02:23.585Z,14.90
2022-09-17T15:04:50.824Z,15.00
2022-09-17T15:07:21.624Z,15.00
2022-09-17T15:09:50.616Z,15.10
2022-09-17T15:12:20.051Z,15.10
2022-09-17T15:14:48.136Z,15.10
2022-09-17T15:17:18.944Z,15.10
2022-09-17T15:19:51.411Z,15.10
2022-09-17T15:22:24.199Z,15.00
2022-09-17T15:25:02.319Z,14.90
2022-09-17T15:27:35.727Z,14.90
2022-09-17T15:30:10.292Z,14.80
2022-09-17T15:32:38.591Z,14.80
2022-09-17T15:35:12.064Z,14.80
2022-09-17T15:37:55.922Z,14.90
2022-09-17T15:40:34.443Z,14.90
2022-09-17T15:43:21.349Z,15.00
2022-09-17T15:45:48.871Z,15.00
2022-09-17T15:48:24.700Z,15.00
2022-09-17T15:50:57.098Z,15.00
2022-09-17T15:53:32.880Z,15.00
2022-09-17T15:56:08.272Z,15.00
2022-09-17T15:58:41.765Z,15.00
2022-09-17T16:01:11.993Z,15.00
2022-09-17T16:03:39.511Z,15.00
2022-09-17T16:06:30.182Z,15.00
2022-09-17T16:09:00.657Z,15.00
2022-09-17T16:11:31.754Z,15.00
2022-09-17T16:14:00.709Z,15.00
2022-09-17T16:16:35.042Z,15.10
2022-09-17T16:19:08.678Z,15.10
2022-09-17T16:21:36.038Z,15.20
2022-09-17T16:24:03.611Z,15.30
2022-09-17T16:26:35.673Z,15.30
2022-09-17T16:29:07.291Z,15.40
2022-09-17T16:31:34.831Z,15.40
2022-09-17T16:34:02.481Z,15.40
2022-09-17T16:36:32.010Z,15.40
2022-09-17T16:38:59.428Z,15.40
2022-09-17T16:41:26.642Z,15.40
2022-09-17T16:43:53.867Z,15.40
2022-09-17T16:46:21.338Z,15.30
2022-09-17T16:48:51.795Z,15.20
2022-09-17T16:51:19.134Z,15.20
2022-09-17T16:53:46.367Z,15.10
2022-09-17T16:56:15.373Z,15.00
2022-09-17T16:58:42.961Z,14.90
2022-09-17T17:01:15.458Z,14.80
2022-09-17T17:03:43.094Z,14.70
2022-09-17T17:06:21.055Z,14.50
2022-09-17T17:08:49.314Z,14.40
2022-09-17T17:11:16.537Z,14.20
2022-09-17T17:13:44.250Z,14.10
2022-09-17T17:16:14.027Z,14.00
2022-09-17T17:18:44.928Z,13.90
2022-09-17T17:21:14.313Z,13.80
2022-09-17T17:23:47.025Z,13.70
2022-09-17T17:26:16.064Z,13.70
2022-09-17T17:28:43.336Z,13.70
2022-09-17T17:31:11.525Z,13.60
2022-09-17T17:33:38.782Z,13.60
2022-09-17T17:36:08.506Z,13.50
2022-09-17T17:38:36.895Z,13.40
2022-09-17T17:41:07.906Z,13.40
2022-09-17T17:43:35.720Z,13.30
2022-09-17T17:46:07.004Z,13.20
2022-09-17T17:48:34.658Z,13.10
2022-09-17T17:51:04.495Z,13.00
2022-09-17T17:53:31.907Z,12.90
2022-09-17T17:56:02.241Z,12.80
2022-09-17T17:58:29.982Z,12.70
2022-09-17T18:00:57.381Z,12.60
2022-09-17T18:03:25.137Z,12.60
2022-09-17T18:05:58.555Z,12.50
2022-09-17T18:08:26.505Z,12.40
2022-09-17T18:10:57.605Z,12.30
2022-09-17T18:13:24.943Z,12.20
2022-09-17T18:16:00.593Z,12.20
2022-09-17T18:18:34.456Z,12.10
2022-09-17T18:21:06.038Z,12.10
2022-09-17T18:23:38.824Z,12.00
2022-09-17T18:26:08.890Z,12.00
2022-09-17T18:28:36.713Z,11.90
2022-09-17T18:31:24.708Z,11.90
2022-09-17T18:33:59.298Z,11.90
2022-09-17T18:36:28.985Z,11.90
2022-09-17T18:39:16.693Z,11.80
2022-09-17T18:41:48.896Z,11.80
2022-09-17T18:44:18.559Z,11.90
2022-09-17T18:46:47.864Z,11.90
2022-09-17T18:49:15.804Z,11.90
2022-09-17T18:51:43.415Z,11.90
2022-09-17T18:54:12.786Z,11.90
2022-09-17T18:56:41.662Z,12.00
2022-09-17T18:59:10.104Z,12.00
2022-09-17T19:01:37.930Z,12.00
2022-09-17T19:04:07.745Z,12.00
2022-09-17T19:06:35.674Z,12.00
2022-09-17T19:09:04.648Z,12.10
2022-09-17T19:11:34.219Z,12.10
2022-09-17T19:14:01.623Z,12.10
2022-09-17T19:16:29.042Z,12.10
2022-09-17T19:18:56.809Z,12.10
2022-09-17T19:21:24.251Z,12.20
2022-09-17T19:23:52.196Z,12.20
2022-09-17T19:26:22.202Z,12.10
2022-09-17T19:29:00.473Z,12.10
2022-09-17T19:31:28.735Z,12.10
2022-09-17T19:33:58.407Z,12.10
2022-09-17T19:36:26.424Z,12.10
2022-09-17T19:38:53.884Z,12.10
2022-09-17T19:41:25.191Z,12.10
2022-09-17T19:43:53.825Z,12.00
2022-09-17T19:46:26.033Z,12.00
2022-09-17T19:48:55.804Z,12.10
2022-09-17T19:51:25.671Z,12.10
2022-09-17T19:53:53.834Z,12.10
2022-09-17T19:56:23.142Z,12.10
2022-09-17T19:58:50.764Z,12.10
2022-09-17T20:01:18.949Z,12.10
2022-09-17T20:03:46.592Z,12.10
2022-09-17T20:06:16.811Z,12.10
2022-09-17T20:08:52.416Z,12.10
2022-09-17T20:11:22.163Z,12.10
2022-09-17T20:13:49.567Z,12.10
2022-09-17T20:16:20.195Z,12.00
2022-09-17T20:18:48.755Z,12.00
2022-09-17T20:21:17.279Z,12.00
2022-09-17T20:23:44.814Z,12.00
2022-09-17T20:26:13.080Z,12.00
2022-09-17T20:28:40.654Z,11.90
2022-09-17T20:31:19.306Z,11.90
2022-09-17T20:33:47.235Z,11.90
2022-09-17T20:36:17.344Z,11.90
2022-09-17T20:39:10.806Z,11.90
2022-09-17T20:41:34.239Z,11.90
2022-09-17T20:44:02.259Z,11.90
2022-09-17T20:46:29.975Z,11.90
2022-09-17T20:48:58.582Z,11.90
2022-09-17T20:51:28.606Z,11.80
2022-09-17T20:53:57.426Z,11.80
2022-09-17T20:56:27.711Z,11.80
2022-09-17T20:59:03.337Z,11.70
2022-09-17T21:01:35.719Z,11.70
2022-09-17T21:04:04.880Z,11.70
2022-09-17T21:06:41.243Z,11.70
2022-09-17T21:09:15.703Z,11.60
2022-09-17T21:11:45.112Z,11.70
2022-09-17T21:14:15.252Z,11.60
2022-09-17T21:16:43.014Z,11.60
2022-09-17T21:19:12.986Z,11.60
2022-09-17T21:21:40.366Z,11.50
2022-09-17T21:24:10.043Z,11.50
2022-09-17T21:26:37.706Z,11.50
2022-09-17T21:29:05.106Z,11.50
2022-09-17T21:31:34.445Z,11.50
2022-09-17T21:34:04.790Z,11.50
2022-09-17T21:36:34.723Z,11.50
2022-09-17T21:39:05.229Z,11.40
2022-09-17T21:41:34.450Z,11.40
2022-09-17T21:44:03.526Z,11.40
2022-09-17T21:46:36.604Z,11.50
2022-09-17T21:49:05.051Z,11.40
2022-09-17T21:51:38.438Z,11.40
2022-09-17T21:54:13.408Z,11.40
2022-09-17T21:56:40.848Z,11.40
2022-09-17T21:59:11.848Z,11.40
2022-09-17T22:01:43.688Z,11.40
2022-09-17T22:04:20.510Z,11.40
2022-09-17T22:06:49.225Z,11.50
2022-09-17T22:09:20.088Z,11.50
2022-09-17T22:11:47.825Z,11.50
2022-09-17T22:14:19.539Z,11.60
2022-09-17T22:16:50.954Z,11.60
2022-09-17T22:19:19.978Z,11.60
2022-09-17T22:21:51.146Z,11.70
2022-09-17T22:24:21.220Z,11.60
2022-09-17T22:26:56.477Z,11.70
2022-09-17T22:29:26.679Z,11.70
2022-09-17T22:31:54.398Z,11.70
2022-09-17T22:34:23.210Z,11.70
2022-09-17T22:36:50.967Z,11.70
2022-09-17T22:39:21.773Z,11.70
2022-09-17T22:41:50.631Z,11.60
2022-09-17T22:44:20.594Z,11.60
2022-09-17T22:46:50.967Z,11.50
2022-09-17T22:49:19.588Z,11.50
2022-09-17T22:51:47.499Z,11.50
2022-09-17T22:54:17.328Z,11.40
2022-09-17T22:56:45.777Z,11.40
2022-09-17T22:59:13.363Z,11.40
2022-09-17T23:01:41.630Z,11.40
2022-09-17T23:04:09.541Z,11.40
2022-09-17T23:06:41.813Z,11.40
2022-09-17T23:09:11.575Z,11.30
2022-09-17T23:11:39.718Z,11.30
2022-09-17T23:14:11.546Z,11.30
2022-09-17T23:16:42.120Z,11.30
2022-09-17T23:19:09.948Z,11.30
2022-09-17T23:21:38.405Z,11.30
2022-09-17T23:24:06.483Z,11.20
2022-09-17T23:26:34.199Z,11.20
2022-09-17T23:29:04.861Z,11.20
2022-09-17T23:31:35.337Z,11.20
2022-09-17T23:34:05.007Z,11.20
2022-09-17T23:36:37.211Z,11.20
2022-09-17T23:39:06.443Z,11.20
2022-09-17T23:41:37.134Z,11.20
2022-09-17T23:44:12.068Z,11.20
2022-09-17T23:46:42.781Z,11.20
2022-09-17T23:49:11.298Z,11.20
2022-09-17T23:51:39.186Z,11.20
2022-09-17T23:54:07.212Z,11.20
2022-09-17T23:56:35.382Z,11.30
2022-09-17T23:59:04.020Z,11.30
